createdAt,value
2023-05-23T00:00:03.340Z,102421.27
2023-05-23T00:02:57.764Z,102421.26
2023-05-23T00:05:31.079Z,102421.75
2023-05-23T00:07:51.296Z,102417.45
2023-05-23T00:10:17.209Z,102418.78
2023-05-23T00:12:38.816Z,102420.29
2023-05-23T00:15:11.277Z,102420.20
2023-05-23T00:17:33.172Z,102419.07
2023-05-23T00:19:59.305Z,102422.77
2023-05-23T00:22:34.297Z,102422.06
2023-05-23T00:24:52.588Z,102422.32
2023-05-23T00:27:18.361Z,102420.20
2023-05-23T00:29:45.410Z,102419.77
2023-05-23T00:32:13.736Z,102419.72
2023-05-23T00:34:33.940Z,102420.08
2023-05-23T00:37:01.401Z,102421.39
2023-05-23T00:39:20.675Z,102422.23
2023-05-23T00:41:38.981Z,102424.19
2023-05-23T00:44:07.122Z,102425.15
2023-05-23T00:46:34.232Z,102421.15
2023-05-23T00:48:53.620Z,102423.70
2023-05-23T00:51:20.012Z,102421.64
2023-05-23T00:53:40.038Z,102422.90
2023-05-23T00:56:07.197Z,102418.75
2023-05-23T00:58:39.074Z,102412.88
2023-05-23T01:01:10.922Z,102406.83
2023-05-23T01:03:46.910Z,102412.56
2023-05-23T01:06:18.787Z,102410.24
2023-05-23T01:08:46.349Z,102402.34
2023-05-23T01:11:23.479Z,102407.89
2023-05-23T01:13:50.077Z,102405.10
2023-05-23T01:16:32.513Z,102400.89
2023-05-23T01:19:01.351Z,102406.66
2023-05-23T01:21:28.733Z,102401.23
2023-05-23T01:24:39.076Z,102401.17
2023-05-23T01:27:13.056Z,102398.93
2023-05-23T01:29:38.278Z,102393.52
2023-05-23T01:32:15.665Z,102389.91
2023-05-23T01:34:42.478Z,102390.27
2023-05-23T01:37:03.465Z,102384.36
2023-05-23T01:39:36.779Z,102384.42
2023-05-23T01:42:08.075Z,102382.73
2023-05-23T01:44:36.209Z,102380.53
2023-05-23T01:46:55.730Z,102381.54
2023-05-23T01:49:30.044Z,102376.34
2023-05-23T01:52:05.786Z,102372.98
2023-05-23T01:54:33.771Z,102371.38
2023-05-23T01:57:09.522Z,102366.44
2023-05-23T01:59:44.125Z,102362.77
2023-05-23T02:02:04.422Z,102362.89
2023-05-23T02:04:34.102Z,102361.13
2023-05-23T02:07:09.077Z,102366.27
2023-05-23T02:09:35.681Z,102369.27
2023-05-23T02:11:55.408Z,102369.67
2023-05-23T02:14:16.610Z,102362.25
2023-05-23T02:16:37.653Z,102360.14
2023-05-23T02:19:06.223Z,102360.23
2023-05-23T02:21:35.057Z,102357.52
2023-05-23T02:24:00.567Z,102354.73
2023-05-23T02:26:28.727Z,102350.41
2023-05-23T02:28:48.113Z,102352.41
2023-05-23T02:31:14.807Z,102349.38
2023-05-23T02:33:49.055Z,102349.40
2023-05-23T02:36:23.844Z,102343.89
2023-05-23T02:38:58.708Z,102342.71
2023-05-23T02:41:31.381Z,102342.16
2023-05-23T02:44:04.496Z,102338.69
2023-05-23T02:46:25.845Z,102342.21
2023-05-23T02:48:50.436Z,102339.48
2023-05-23T02:51:17.090Z,102337.69
2023-05-23T02:53:43.518Z,102333.64
2023-05-23T02:56:18.812Z,102335.99
2023-05-23T02:58:39.602Z,102339.00
2023-05-23T03:01:13.231Z,102337.40
2023-05-23T03:03:47.972Z,102336.42
2023-05-23T03:06:15.699Z,102337.24
2023-05-23T03:08:40.548Z,102336.70
2023-05-23T03:10:59.030Z,102335.44
2023-05-23T03:13:26.509Z,102335.00
2023-05-23T03:15:54.322Z,102331.29
2023-05-23T03:18:21.420Z,102326.94
2023-05-23T03:20:57.017Z,102324.80
2023-05-23T03:23:30.956Z,102324.69
2023-05-23T03:25:51.230Z,102321.30
2023-05-23T03:28:25.496Z,102321.17
2023-05-23T03:30:47.361Z,102322.42
2023-05-23T03:33:09.818Z,102325.45
2023-05-23T03:35:35.337Z,102326.23
2023-05-23T03:38:09.859Z,102331.41
2023-05-23T03:40:46.214Z,102328.05
2023-05-23T03:43:15.519Z,102328.23
2023-05-23T03:45:42.380Z,102331.79
2023-05-23T03:48:03.916Z,102331.20
2023-05-23T03:50:32.010Z,102326.70
2023-05-23T03:52:54.352Z,102327.38
2023-05-23T03:55:28.577Z,102324.56
2023-05-23T03:58:14.283Z,102322.29
2023-05-23T04:00:49.509Z,102323.13
2023-05-23T04:03:25.049Z,102321.63
2023-05-23T04:05:58.887Z,102320.86
2023-05-23T04:08:27.044Z,102323.01
2023-05-23T04:11:01.238Z,102321.22
2023-05-23T04:13:35.777Z,102321.25
2023-05-23T04:16:06.765Z,102319.48
2023-05-23T04:18:40.951Z,102316.32
2023-05-23T04:21:10.357Z,102315.69
2023-05-23T04:23:37.951Z,102320.43
2023-05-23T04:25:58.647Z,102320.47
2023-05-23T04:28:34.198Z,102320.52
2023-05-23T04:31:09.748Z,102316.70
2023-05-23T04:33:36.083Z,102320.27
2023-05-23T04:36:01.239Z,102319.29
2023-05-23T04:38:30.480Z,102320.27
2023-05-23T04:41:04.366Z,102317.88
2023-05-23T04:43:59.294Z,102319.98
2023-05-23T04:46:37.857Z,102319.12
2023-05-23T04:49:14.101Z,102322.69
2023-05-23T04:51:41.364Z,102319.77
2023-05-23T04:54:27.152Z,102319.48
2023-05-23T04:56:58.528Z,102315.91
2023-05-23T04:59:33.243Z,102316.48
2023-05-23T05:01:55.882Z,102317.38
2023-05-23T05:04:12.806Z,102316.71
2023-05-23T05:06:39.490Z,102314.55
2023-05-23T05:09:11.067Z,102319.66
2023-05-23T05:11:45.860Z,102319.39
2023-05-23T05:14:20.337Z,102319.69
2023-05-23T05:16:55.710Z,102323.44
2023-05-23T05:19:19.731Z,102319.34
2023-05-23T05:21:54.667Z,102318.68
2023-05-23T05:24:14.865Z,102315.55
2023-05-23T05:26:42.052Z,102315.96
2023-05-23T05:29:15.584Z,102318.49
2023-05-23T05:31:37.005Z,102322.66
2023-05-23T05:33:56.636Z,102323.00
2023-05-23T05:36:24.504Z,102320.38
2023-05-23T05:38:59.474Z,102317.55
2023-05-23T05:41:32.791Z,102317.00
2023-05-23T05:44:06.846Z,102315.27
2023-05-23T05:46:27.814Z,102313.83
2023-05-23T05:49:03.102Z,102314.39
2023-05-23T05:51:33.275Z,102310.38
2023-05-23T05:53:53.356Z,102306.65
2023-05-23T05:56:29.189Z,102302.98
2023-05-23T05:59:04.849Z,102304.09
2023-05-23T06:01:40.494Z,102302.25
2023-05-23T06:04:16.149Z,102300.89
2023-05-23T06:06:45.457Z,102298.98
2023-05-23T06:09:19.167Z,102301.73
2023-05-23T06:11:41.169Z,102300.30
2023-05-23T06:14:07.034Z,102303.72
2023-05-23T06:16:37.225Z,102304.79
2023-05-23T06:19:12.467Z,102302.84
2023-05-23T06:21:33.421Z,102301.28
2023-05-23T06:23:55.842Z,102296.16
2023-05-23T06:26:29.295Z,102297.61
2023-05-23T06:29:04.235Z,102296.63
2023-05-23T06:31:38.057Z,102295.32
2023-05-23T06:34:12.597Z,102296.64
2023-05-23T06:36:48.080Z,102289.89
2023-05-23T06:39:22.828Z,102289.00
2023-05-23T06:41:57.607Z,102288.55
2023-05-23T06:44:32.628Z,102286.42
2023-05-23T06:47:06.983Z,102282.58
2023-05-23T06:49:30.730Z,102278.13
2023-05-23T06:52:06.821Z,102277.38
2023-05-23T06:54:43.451Z,102275.63
2023-05-23T06:57:11.764Z,102277.44
2023-05-23T06:59:44.033Z,102277.11
2023-05-23T07:02:19.103Z,102270.02
2023-05-23T07:04:54.021Z,102272.64
2023-05-23T07:07:29.709Z,102271.05
2023-05-23T07:10:04.419Z,102274.41
2023-05-23T07:12:40.311Z,102271.99
2023-05-23T07:15:17.568Z,102273.75
2023-05-23T07:17:56.829Z,102275.14
2023-05-23T07:20:32.418Z,102273.64
2023-05-23T07:23:07.329Z,102270.58
2023-05-23T07:25:44.563Z,102269.24
2023-05-23T07:28:28.748Z,102271.59
2023-05-23T07:31:02.971Z,102267.61
2023-05-23T07:33:26.203Z,102269.62
2023-05-23T07:36:01.718Z,102266.78
2023-05-23T07:38:37.208Z,102260.16
2023-05-23T07:41:11.451Z,102260.25
2023-05-23T07:43:32.728Z,102258.70
2023-05-23T07:46:04.107Z,102256.00
2023-05-23T07:48:30.956Z,102257.11
2023-05-23T07:51:05.847Z,102255.39
2023-05-23T07:53:41.437Z,102250.15
2023-05-23T07:56:17.069Z,102249.84
2023-05-23T07:58:51.288Z,102245.48
2023-05-23T08:01:11.770Z,102239.95
2023-05-23T08:04:06.843Z,102240.44
2023-05-23T08:06:29.928Z,102238.30
2023-05-23T08:09:03.268Z,102239.27
2023-05-23T08:11:36.736Z,102236.29
2023-05-23T08:14:01.723Z,102236.16
2023-05-23T08:16:40.544Z,102233.45
2023-05-23T08:19:16.871Z,102233.44
2023-05-23T08:21:43.671Z,102231.77
2023-05-23T08:24:18.246Z,102226.86
2023-05-23T08:26:53.831Z,102226.30
2023-05-23T08:29:14.774Z,102224.65
2023-05-23T08:31:48.867Z,102222.08
2023-05-23T08:34:23.384Z,102221.59
2023-05-23T08:36:57.697Z,102219.19
2023-05-23T08:39:26.695Z,102219.99
2023-05-23T08:42:05.594Z,102218.34
2023-05-23T08:44:33.238Z,102220.61
2023-05-23T08:47:06.774Z,102214.91
2023-05-23T08:49:43.791Z,102216.41
2023-05-23T08:52:21.570Z,102217.13
2023-05-23T08:54:49.010Z,102219.85
2023-05-23T08:57:12.277Z,102217.18
2023-05-23T08:59:40.202Z,102217.80
2023-05-23T09:02:06.677Z,102215.20
2023-05-23T09:04:42.057Z,102214.51
2023-05-23T09:07:04.161Z,102209.79
2023-05-23T09:09:26.691Z,102204.23
2023-05-23T09:11:53.930Z,102199.94
2023-05-23T09:14:27.979Z,102196.48
2023-05-23T09:16:57.429Z,102199.67
2023-05-23T09:19:27.189Z,102196.95
2023-05-23T09:21:54.943Z,102198.95
2023-05-23T09:24:26.015Z,102199.38
2023-05-23T09:26:56.630Z,102197.50
2023-05-23T09:29:32.430Z,102187.63
2023-05-23T09:32:17.120Z,102187.42
2023-05-23T09:35:01.529Z,102186.27
2023-05-23T09:37:28.788Z,102188.70
2023-05-23T09:40:04.562Z,102187.14
2023-05-23T09:42:45.013Z,102180.85
2023-05-23T09:45:20.512Z,102182.66
2023-05-23T09:48:00.082Z,102184.13
2023-05-23T09:50:24.035Z,102188.84
2023-05-23T09:52:49.965Z,102182.36
2023-05-23T09:55:09.371Z,102183.85
2023-05-23T09:57:33.111Z,102177.94
2023-05-23T10:00:07.964Z,102177.12
2023-05-23T10:05:38.254Z,102176.18
2023-05-23T10:08:11.980Z,102177.60
2023-05-23T10:10:52.399Z,102171.46
2023-05-23T10:13:23.977Z,102169.80
2023-05-23T10:15:47.040Z,102169.59
2023-05-23T10:18:20.386Z,102168.03
2023-05-23T10:20:43.659Z,102171.27
2023-05-23T10:23:06.840Z,102168.36
2023-05-23T10:25:38.981Z,102166.09
2023-05-23T10:28:04.328Z,102163.73
2023-05-23T10:30:41.609Z,102160.08
2023-05-23T10:33:05.550Z,102152.36
2023-05-23T10:35:46.406Z,102149.95
2023-05-23T10:38:23.956Z,102148.51
2023-05-23T10:41:04.924Z,102145.33
2023-05-23T10:43:34.977Z,102151.70
2023-05-23T10:45:56.093Z,102150.27
2023-05-23T10:48:26.526Z,102150.37
2023-05-23T10:50:47.985Z,102146.19
2023-05-23T10:53:23.268Z,102143.94
2023-05-23T10:55:55.697Z,102145.92
2023-05-23T10:58:24.210Z,102147.56
2023-05-23T11:00:50.816Z,102146.91
2023-05-23T11:03:17.804Z,102137.44
2023-05-23T11:05:56.258Z,102142.31
2023-05-23T11:08:18.973Z,102141.17
2023-05-23T11:11:07.283Z,102140.31
2023-05-23T11:14:03.916Z,102137.16
2023-05-23T11:16:44.462Z,102130.17
2023-05-23T11:19:34.171Z,102133.06
2023-05-23T11:22:08.678Z,102128.44
2023-05-23T11:24:59.975Z,102129.38
2023-05-23T11:27:39.003Z,102123.34
2023-05-23T11:30:08.403Z,102126.02
2023-05-23T11:32:36.589Z,102126.89
2023-05-23T11:35:00.033Z,102127.30
2023-05-23T11:37:27.436Z,102124.36
2023-05-23T11:39:50.429Z,102120.83
2023-05-23T11:42:25.856Z,102116.55
2023-05-23T11:44:59.981Z,102113.05
2023-05-23T11:47:32.296Z,102111.05
2023-05-23T11:50:05.758Z,102111.89
2023-05-23T11:52:41.743Z,102110.13
2023-05-23T11:55:02.847Z,102110.18
2023-05-23T11:57:41.309Z,102105.83
2023-05-23T12:00:12.623Z,102099.59
2023-05-23T12:02:51.389Z,102103.29
2023-05-23T12:05:19.450Z,102099.52
2023-05-23T12:07:46.524Z,102095.11
2023-05-23T12:10:14.106Z,102094.24
2023-05-23T12:12:44.063Z,102087.86
2023-05-23T12:15:18.662Z,102085.40
2023-05-23T12:17:40.680Z,102082.39
2023-05-23T12:20:11.999Z,102080.33
2023-05-23T12:22:35.809Z,102076.61
2023-05-23T12:25:11.957Z,102075.13
2023-05-23T12:27:45.151Z,102074.98
2023-05-23T12:30:20.674Z,102078.26
2023-05-23T12:32:45.950Z,102075.46
2023-05-23T12:35:11.982Z,102076.70
2023-05-23T12:37:34.509Z,102077.44
2023-05-23T12:40:01.579Z,102078.35
2023-05-23T12:42:47.060Z,102076.95
2023-05-23T12:45:23.931Z,102075.10
2023-05-23T12:47:53.641Z,102074.31
2023-05-23T12:50:21.341Z,102070.26
2023-05-23T12:52:49.770Z,102067.83
2023-05-23T12:55:25.020Z,102067.40
2023-05-23T12:57:59.392Z,102069.41
2023-05-23T13:00:33.677Z,102069.70
2023-05-23T13:02:59.883Z,102066.19
2023-05-23T13:05:29.708Z,102065.68
2023-05-23T13:07:56.683Z,102061.27
2023-05-23T13:10:27.749Z,102063.19
2023-05-23T13:13:06.058Z,102060.40
2023-05-23T13:15:34.870Z,102061.31
2023-05-23T13:17:55.902Z,102063.41
2023-05-23T13:20:23.383Z,102069.38
2023-05-23T13:22:51.111Z,102068.91
2023-05-23T13:25:24.940Z,102071.86
2023-05-23T13:27:58.464Z,102073.55
2023-05-23T13:30:32.650Z,102074.80
2023-05-23T13:32:58.702Z,102076.98
2023-05-23T13:35:33.140Z,102077.09
2023-05-23T13:38:01.780Z,102077.59
2023-05-23T13:40:36.015Z,102080.77
2023-05-23T13:43:12.611Z,102083.35
2023-05-23T13:45:48.467Z,102085.86
2023-05-23T13:48:16.191Z,102089.05
2023-05-23T13:50:46.067Z,102089.61
2023-05-23T13:53:16.459Z,102087.60
2023-05-23T13:55:51.870Z,102089.84
2023-05-23T13:58:15.261Z,102089.72
2023-05-23T14:00:50.487Z,102090.30
2023-05-23T14:03:26.410Z,102090.11
2023-05-23T14:06:00.342Z,102090.89
2023-05-23T14:08:33.861Z,102088.80
2023-05-23T14:11:01.503Z,102083.94
2023-05-23T14:13:35.923Z,102084.70
2023-05-23T14:16:03.123Z,102085.02
2023-05-23T14:18:32.807Z,102087.83
2023-05-23T14:21:04.253Z,102085.25
2023-05-23T14:23:26.026Z,102087.98
2023-05-23T14:25:48.005Z,102089.05
2023-05-23T14:28:16.816Z,102087.14
2023-05-23T14:30:33.967Z,102089.00
2023-05-23T14:32:53.159Z,102089.37
2023-05-23T14:35:19.079Z,102094.73
2023-05-23T14:37:54.066Z,102094.30
2023-05-23T14:40:29.758Z,102097.71
2023-05-23T14:42:58.686Z,102101.29
2023-05-23T14:45:32.919Z,102102.84
2023-05-23T14:48:09.159Z,102099.11
2023-05-23T14:50:44.167Z,102097.88
2023-05-23T14:53:17.942Z,102097.33
2023-05-23T14:55:53.072Z,102098.81
2023-05-23T14:58:14.272Z,102094.83
2023-05-23T15:00:34.342Z,102091.69
2023-05-23T15:03:09.392Z,102094.67
2023-05-23T15:05:31.849Z,102089.48
2023-05-23T15:08:07.503Z,102098.66
2023-05-23T15:10:36.498Z,102099.64
2023-05-23T15:13:05.443Z,102100.30
2023-05-23T15:15:41.981Z,102097.61
2023-05-23T15:18:19.010Z,102099.29
2023-05-23T15:21:02.129Z,102100.16
2023-05-23T15:23:34.092Z,102100.23
2023-05-23T15:26:00.821Z,102100.67
2023-05-23T15:28:34.480Z,102097.82
2023-05-23T15:30:55.350Z,102098.08
2023-05-23T15:33:23.045Z,102098.79
2023-05-23T15:35:44.614Z,102093.48
2023-05-23T15:38:05.072Z,102091.45
2023-05-23T15:40:31.308Z,102087.75
2023-05-23T15:42:54.271Z,102084.30
2023-05-23T15:45:23.365Z,102083.52
2023-05-23T15:47:45.332Z,102083.38
2023-05-23T15:50:14.434Z,102082.58
2023-05-23T15:52:38.773Z,102081.38
2023-05-23T15:55:14.668Z,102082.50
2023-05-23T15:57:41.955Z,102083.07
2023-05-23T16:00:04.998Z,102081.23
2023-05-23T16:02:28.134Z,102073.77
2023-05-23T16:04:49.918Z,102073.42
2023-05-23T16:07:17.646Z,102072.08
2023-05-23T16:09:51.872Z,102074.13
2023-05-23T16:12:17.178Z,102072.42
2023-05-23T16:14:48.956Z,102076.05
2023-05-23T16:17:16.238Z,102075.23
2023-05-23T16:19:50.605Z,102077.86
2023-05-23T16:22:18.537Z,102076.65
2023-05-23T16:24:44.883Z,102075.02
2023-05-23T16:27:20.657Z,102074.98
2023-05-23T16:29:41.349Z,102077.13
2023-05-23T16:32:09.636Z,102073.29
2023-05-23T16:34:33.072Z,102071.77
2023-05-23T16:37:08.786Z,102074.75
2023-05-23T16:39:32.544Z,102076.23
2023-05-23T16:42:00.340Z,102077.17
2023-05-23T16:44:33.188Z,102077.65
2023-05-23T16:47:07.581Z,102070.30
2023-05-23T16:49:28.069Z,102067.12
2023-05-23T16:51:53.623Z,102068.63
2023-05-23T16:54:21.167Z,102068.76
2023-05-23T16:56:41.227Z,102068.85
2023-05-23T16:59:02.123Z,102066.50
2023-05-23T17:01:35.168Z,102067.81
2023-05-23T17:04:02.737Z,102061.05
2023-05-23T17:06:24.178Z,102057.90
2023-05-23T17:08:49.979Z,102057.53
2023-05-23T17:11:24.888Z,102057.04
2023-05-23T17:13:55.947Z,102058.09
2023-05-23T17:16:34.417Z,102059.59
2023-05-23T17:18:59.315Z,102058.38
2023-05-23T17:21:27.758Z,102061.74
2023-05-23T17:24:02.553Z,102062.83
2023-05-23T17:26:34.448Z,102064.29
2023-05-23T17:29:02.797Z,102066.95
2023-05-23T17:31:38.052Z,102069.78
2023-05-23T17:34:01.560Z,102065.54
2023-05-23T17:36:37.220Z,102070.95
2023-05-23T17:38:58.624Z,102073.20
2023-05-23T17:41:33.331Z,102077.30
2023-05-23T17:44:07.736Z,102078.71
2023-05-23T17:46:30.722Z,102073.64
2023-05-23T17:48:58.315Z,102074.98
2023-05-23T17:51:32.069Z,102079.48
2023-05-23T17:53:54.675Z,102081.96
2023-05-23T17:56:20.952Z,102082.20
2023-05-23T17:58:41.682Z,102083.23
2023-05-23T18:01:17.314Z,102079.88
2023-05-23T18:03:50.956Z,102079.00
2023-05-23T18:06:14.647Z,102075.05
2023-05-23T18:08:36.468Z,102069.08
2023-05-23T18:11:01.861Z,102071.12
2023-05-23T18:13:28.176Z,102069.45
2023-05-23T18:15:53.717Z,102073.77
2023-05-23T18:18:21.665Z,102073.35
2023-05-23T18:20:55.626Z,102064.84
2023-05-23T18:23:18.816Z,102066.80
2023-05-23T18:25:53.896Z,102065.63
2023-05-23T18:28:22.677Z,102066.93
2023-05-23T18:30:45.447Z,102062.88
2023-05-23T18:33:17.771Z,102066.43
2023-05-23T18:35:52.116Z,102065.30
2023-05-23T18:38:15.418Z,102066.48
2023-05-23T18:40:50.901Z,102063.01
2023-05-23T18:43:10.450Z,102068.02
2023-05-23T18:45:30.179Z,102064.16
2023-05-23T18:47:56.102Z,102059.80
2023-05-23T18:50:21.471Z,102062.92
2023-05-23T18:52:43.534Z,102061.09
2023-05-23T18:55:09.349Z,102056.98
2023-05-23T18:57:36.408Z,102056.45
2023-05-23T19:00:10.249Z,102057.44
2023-05-23T19:02:45.431Z,102062.15
2023-05-23T19:05:15.839Z,102060.78
2023-05-23T19:07:42.609Z,102061.45
2023-05-23T19:10:18.302Z,102055.84
2023-05-23T19:12:52.534Z,102056.69
2023-05-23T19:15:14.076Z,102055.06
2023-05-23T19:17:42.406Z,102055.90
2023-05-23T19:20:03.055Z,102057.05
2023-05-23T19:22:43.072Z,102053.02
2023-05-23T19:25:19.517Z,102057.06
2023-05-23T19:27:41.750Z,102057.13
2023-05-23T19:30:06.268Z,102053.09
2023-05-23T19:32:27.329Z,102051.04
2023-05-23T19:35:01.520Z,102054.39
2023-05-23T19:37:35.609Z,102054.70
2023-05-23T19:40:07.349Z,102055.60
2023-05-23T19:42:43.033Z,102057.52
2023-05-23T19:45:01.914Z,102055.29
2023-05-23T19:47:36.254Z,102062.05
2023-05-23T19:50:03.316Z,102059.02
2023-05-23T19:52:38.634Z,102052.73
2023-05-23T19:55:03.729Z,102050.48
2023-05-23T19:57:37.648Z,102054.42
2023-05-23T20:00:12.660Z,102051.18
2023-05-23T20:02:48.771Z,102050.80
2023-05-23T20:05:23.891Z,102050.05
2023-05-23T20:07:43.885Z,102046.02
2023-05-23T20:10:18.507Z,102037.42
2023-05-23T20:12:50.923Z,102034.70
2023-05-23T20:15:38.564Z,102035.41
2023-05-23T20:18:12.685Z,102037.25
2023-05-23T20:20:36.778Z,102036.97
2023-05-23T20:23:05.676Z,102033.63
2023-05-23T20:25:32.720Z,102032.91
2023-05-23T20:28:07.704Z,102032.27
2023-05-23T20:30:28.050Z,102033.20
2023-05-23T20:32:54.878Z,102027.84
2023-05-23T20:35:22.124Z,102024.97
2023-05-23T20:37:48.884Z,102027.19
2023-05-23T20:40:26.741Z,102028.34
2023-05-23T20:42:48.140Z,102027.56
2023-05-23T20:45:21.601Z,102025.71
2023-05-23T20:47:44.672Z,102024.40
2023-05-23T20:50:04.802Z,102018.11
2023-05-23T20:52:42.686Z,102016.30
2023-05-23T20:55:18.890Z,102021.09
2023-05-23T20:57:43.969Z,102024.12
2023-05-23T21:00:22.793Z,102020.77
2023-05-23T21:02:42.636Z,102020.98
2023-05-23T21:05:10.541Z,102019.48
2023-05-23T21:07:33.072Z,102023.98
2023-05-23T21:10:03.869Z,102025.47
2023-05-23T21:12:29.260Z,102025.98
2023-05-23T21:15:02.960Z,102028.02
2023-05-23T21:17:24.425Z,102028.96
2023-05-23T21:19:52.288Z,102032.69
2023-05-23T21:22:24.650Z,102035.16
2023-05-23T21:24:42.978Z,102035.14
2023-05-23T21:27:04.694Z,102036.35
2023-05-23T21:29:32.695Z,102035.29
2023-05-23T21:31:54.948Z,102037.05
2023-05-23T21:34:23.791Z,102035.08
2023-05-23T21:36:52.333Z,102031.05
2023-05-23T21:39:20.178Z,102028.55
2023-05-23T21:41:55.966Z,102026.48
2023-05-23T21:44:22.317Z,102024.15
2023-05-23T21:46:49.928Z,102025.91
2023-05-23T21:49:13.559Z,102028.30
2023-05-23T21:51:41.122Z,102026.58
2023-05-23T21:54:15.543Z,102027.45
2023-05-23T21:56:46.254Z,102025.77
2023-05-23T21:59:17.405Z,102025.96
2023-05-23T22:01:44.266Z,102021.17
2023-05-23T22:04:21.038Z,102018.91
2023-05-23T22:06:53.082Z,102019.86
2023-05-23T22:09:27.624Z,102021.88
2023-05-23T22:11:49.208Z,102028.05
2023-05-23T22:14:08.551Z,102029.86
2023-05-23T22:16:30.145Z,102035.32
2023-05-23T22:19:01.686Z,102036.23
2023-05-23T22:21:24.031Z,102040.40
2023-05-23T22:23:58.914Z,102049.01
2023-05-23T22:26:23.083Z,102057.54
2023-05-23T22:28:56.835Z,102055.61
2023-05-23T22:31:22.676Z,102054.48
2023-05-23T22:33:50.196Z,102049.95
2023-05-23T22:36:23.040Z,102039.20
2023-05-23T22:38:44.392Z,102032.58
2023-05-23T22:41:11.466Z,102029.27
2023-05-23T22:43:34.585Z,102027.76
2023-05-23T22:46:04.676Z,102021.73
2023-05-23T22:48:29.143Z,102016.81
2023-05-23T22:50:49.773Z,102023.14
2023-05-23T22:53:23.917Z,102025.49
2023-05-23T22:55:50.010Z,102021.32
2023-05-23T22:58:17.393Z,102017.36
2023-05-23T23:00:36.960Z,102016.14
2023-05-23T23:02:56.854Z,102017.13
2023-05-23T23:05:27.303Z,102017.61
2023-05-23T23:07:53.363Z,102019.58
2023-05-23T23:10:26.584Z,102023.09
2023-05-23T23:12:45.809Z,102018.70
2023-05-23T23:15:20.224Z,102017.54
2023-05-23T23:17:50.278Z,102014.84
2023-05-23T23:20:18.559Z,102011.73
2023-05-23T23:22:37.846Z,102010.79
2023-05-23T23:25:14.159Z,102017.58
2023-05-23T23:27:43.209Z,102012.71
2023-05-23T23:30:12.832Z,102013.46
2023-05-23T23:32:46.276Z,102010.20
2023-05-23T23:35:14.196Z,102006.98
2023-05-23T23:37:48.230Z,102001.21
2023-05-23T23:40:13.524Z,101995.86
2023-05-23T23:42:46.352Z,101993.25
2023-05-23T23:45:21.250Z,101984.44
2023-05-23T23:47:49.354Z,101987.41
2023-05-23T23:50:17.888Z,101979.13
2023-05-23T23:52:38.464Z,101981.96
2023-05-23T23:54:57.897Z,101977.63
2023-05-23T23:57:22.155Z,101973.95
2023-05-23T23:59:58.303Z,101973.45
